Time;durP1;ratioP1;P1;durP2;ratioP2;P2;SDS_P1;SDS_P2;PMS_P1;PMS_P2;Temp;Humidity;BMP_temperature;BMP_pressure;BME280_temperature;BME280_humidity;BME280_pressure;Samples;Min_cycle;Max_cycle;Signal;HPM_P1;HPM_P2
2021/08/15 00:00:53;;;;;;;6.13;4.13;;;18.10;90.00;;;;;;2049984;29;20184;-65
2021/08/15 00:01:54;;;;;;;8.70;4.93;;;18.10;90.00;;;;;;2049982;28;20170;-65
2021/08/15 00:02:55;;;;;;;7.03;4.10;;;18.10;90.30;;;;;;2049295;28;20620;-66
2021/08/15 00:03:55;;;;;;;8.30;4.43;;;18.10;90.50;;;;;;2049397;29;20259;-65
2021/08/15 00:04:56;;;;;;;7.70;4.33;;;18.10;90.40;;;;;;2049890;29;20168;-65
2021/08/15 00:05:57;;;;;;;6.40;4.33;;;18.10;90.40;;;;;;2050044;28;20179;-65
2021/08/15 00:06:58;;;;;;;7.60;5.17;;;18.10;90.40;;;;;;2049698;29;20188;-65
2021/08/15 00:07:58;;;;;;;5.27;4.70;;;18.00;90.90;;;;;;2049798;28;20172;-64
2021/08/15 00:08:59;;;;;;;8.93;4.30;;;18.10;90.50;;;;;;2050050;28;20238;-64
2021/08/15 00:10:00;;;;;;;6.47;4.80;;;18.00;90.50;;;;;;2049910;28;20248;-64
2021/08/15 00:11:01;;;;;;;7.37;4.30;;;18.00;90.50;;;;;;2049993;28;20274;-64
2021/08/15 00:12:07;;;;;;;7.67;5.27;;;18.00;90.70;;;;;;2049127;28;20180;-64
2021/08/15 00:13:08;;;;;;;6.83;4.30;;;18.00;90.60;;;;;;2049291;29;21008;-65
2021/08/15 00:14:09;;;;;;;6.77;4.50;;;18.00;90.60;;;;;;2049891;29;20424;-65
2021/08/15 00:15:11;;;;;;;4.63;3.90;;;18.00;90.60;;;;;;2049904;29;20208;-65
2021/08/15 00:16:11;;;;;;;4.93;3.67;;;18.00;90.60;;;;;;2050093;28;20180;-64
2021/08/15 00:17:12;;;;;;;4.90;3.97;;;17.90;90.60;;;;;;2049855;28;20493;-65
2021/08/15 00:18:13;;;;;;;4.17;3.67;;;17.90;90.70;;;;;;2049823;28;20194;-65
2021/08/15 00:19:14;;;;;;;7.03;4.23;;;17.90;90.80;;;;;;2049918;29;20432;-65
2021/08/15 00:20:14;;;;;;;5.57;4.30;;;17.90;90.90;;;;;;2049874;28;20192;-65
2021/08/15 00:21:15;;;;;;;5.27;4.10;;;17.90;91.00;;;;;;2050009;28;20211;-65
2021/08/15 00:22:16;;;;;;;5.67;4.00;;;17.90;91.00;;;;;;2049762;28;20234;-65
2021/08/15 00:23:17;;;;;;;5.30;3.70;;;17.90;90.80;;;;;;2049884;28;20230;-65
2021/08/15 00:24:18;;;;;;;4.97;4.47;;;17.90;90.70;;;;;;2049858;28;20192;-65
2021/08/15 00:25:18;;;;;;;4.67;4.13;;;17.90;90.60;;;;;;2049220;29;20188;-65
2021/08/15 00:26:19;;;;;;;6.43;4.00;;;17.90;90.50;;;;;;2049192;29;20193;-64
2021/08/15 00:27:20;;;;;;;5.63;4.10;;;17.80;90.30;;;;;;2049774;28;20187;-65
2021/08/15 00:28:21;;;;;;;6.00;3.97;;;17.80;90.20;;;;;;2049729;28;20686;-66
2021/08/15 00:29:22;;;;;;;8.87;4.10;;;17.80;90.30;;;;;;2049786;28;20191;-64
2021/08/15 00:30:22;;;;;;;8.20;3.70;;;17.80;90.30;;;;;;2049637;28;20186;-65
2021/08/15 00:31:27;;;;;;;6.37;4.43;;;17.80;90.20;;;;;;2049876;28;20423;-64
2021/08/15 00:32:28;;;;;;;6.67;3.67;;;17.70;90.50;;;;;;2049144;28;20203;-64
2021/08/15 00:33:29;;;;;;;5.30;3.50;;;17.70;90.60;;;;;;2049203;29;20431;-65
2021/08/15 00:34:30;;;;;;;8.13;4.03;;;17.70;90.60;;;;;;2049673;28;20581;-64
2021/08/15 00:35:30;;;;;;;10.17;4.10;;;17.70;90.60;;;;;;2052597;28;20431;-64
2021/08/15 00:36:31;;;;;;;7.43;4.67;;;17.70;90.60;;;;;;2057070;28;20674;-64
2021/08/15 00:37:32;;;;;;;3.90;3.30;;;17.70;90.60;;;;;;2056958;28;20183;-64
2021/08/15 00:38:33;;;;;;;7.37;4.40;;;17.60;90.70;;;;;;2057702;28;20179;-65
2021/08/15 00:39:33;;;;;;;5.43;3.90;;;17.60;90.90;;;;;;2057513;28;20601;-64
2021/08/15 00:40:34;;;;;;;9.47;4.33;;;17.60;90.80;;;;;;2056762;28;20209;-64
2021/08/15 00:41:35;;;;;;;9.70;4.40;;;17.50;90.80;;;;;;2056923;28;20191;-64
2021/08/15 00:42:36;;;;;;;5.00;4.50;;;17.60;90.90;;;;;;2057494;28;20202;-64
2021/08/15 00:43:37;;;;;;;5.03;4.40;;;17.50;91.00;;;;;;2057851;28;20256;-64
2021/08/15 00:44:38;;;;;;;5.87;4.10;;;17.50;90.80;;;;;;2056999;28;20191;-63
2021/08/15 00:45:39;;;;;;;7.60;4.63;;;17.50;90.70;;;;;;2057068;28;20430;-64
2021/08/15 00:46:42;;;;;;;5.13;3.83;;;17.50;90.80;;;;;;2057641;28;20198;-64
2021/08/15 00:47:43;;;;;;;7.70;5.20;;;17.50;90.80;;;;;;2057392;28;20251;-63
2021/08/15 00:48:43;;;;;;;7.00;4.47;;;17.50;90.80;;;;;;2057507;28;20566;-64
2021/08/15 00:49:44;;;;;;;5.77;4.27;;;17.40;90.80;;;;;;2057633;28;20654;-65
2021/08/15 00:50:45;;;;;;;7.10;5.13;;;17.40;90.80;;;;;;2057020;28;20834;-64
2021/08/15 00:51:46;;;;;;;5.00;4.50;;;17.40;90.80;;;;;;2057062;28;20615;-64
2021/08/15 00:52:46;;;;;;;6.73;4.17;;;17.40;90.90;;;;;;2057635;28;20743;-64
2021/08/15 00:53:48;;;;;;;4.53;3.57;;;17.40;90.90;;;;;;2057676;28;20670;-64
2021/08/15 00:54:49;;;;;;;4.23;3.37;;;17.40;91.10;;;;;;2057628;28;20558;-64
2021/08/15 00:55:49;;;;;;;5.93;4.47;;;17.40;91.10;;;;;;2057523;28;20422;-64
2021/08/15 00:56:53;;;;;;;8.03;3.77;;;17.40;91.20;;;;;;2057483;28;20201;-65
2021/08/15 00:57:55;;;;;;;6.63;4.77;;;17.50;91.30;;;;;;2049004;28;20215;-64
2021/08/15 00:58:56;;;;;;;5.07;3.87;;;17.40;91.30;;;;;;2049133;28;21037;-64
2021/08/15 01:00:07;;;;;;;6.47;3.77;;;17.50;91.20;;;;;;2056894;28;20429;-64
2021/08/15 01:01:09;;;;;;;6.37;4.27;;;17.50;91.20;;;;;;2057140;28;20410;-64
2021/08/15 01:02:11;;;;;;;5.13;3.70;;;17.50;91.20;;;;;;2057527;28;20460;-64
2021/08/15 01:03:12;;;;;;;6.77;4.63;;;17.40;91.20;;;;;;2057357;28;20509;-64
2021/08/15 01:04:12;;;;;;;5.77;4.50;;;17.40;91.30;;;;;;2057601;28;20430;-64
2021/08/15 01:05:14;;;;;;;5.77;3.97;;;17.40;91.30;;;;;;2057590;28;20274;-64
2021/08/15 01:06:15;;;;;;;7.83;4.63;;;17.40;91.30;;;;;;2057462;28;20561;-64
2021/08/15 01:07:17;;;;;;;7.63;4.73;;;17.40;91.30;;;;;;2057315;28;20442;-64
2021/08/15 01:08:18;;;;;;;6.70;4.13;;;17.40;91.30;;;;;;2057460;28;20210;-63
2021/08/15 01:09:22;;;;;;;5.63;3.93;;;17.40;91.30;;;;;;2056836;28;20422;-64
2021/08/15 01:10:23;;;;;;;5.87;4.27;;;17.40;91.20;;;;;;2056920;28;20183;-64
2021/08/15 01:11:24;;;;;;;5.83;4.17;;;17.40;91.10;;;;;;2057534;28;20431;-64
2021/08/15 01:12:27;;;;;;;4.90;4.13;;;17.40;91.10;;;;;;2057408;28;20750;-64
2021/08/15 01:13:28;;;;;;;6.80;4.13;;;17.40;91.10;;;;;;2056904;28;20690;-64
2021/08/15 01:14:28;;;;;;;6.47;4.57;;;17.40;91.10;;;;;;2049136;28;20490;-64
2021/08/15 01:15:29;;;;;;;6.20;4.07;;;17.40;91.50;;;;;;2048825;29;20631;-64
2021/08/15 01:16:30;;;;;;;6.13;4.37;;;17.40;91.10;;;;;;2057001;28;20179;-63
2021/08/15 01:17:31;;;;;;;4.53;3.77;;;17.30;91.00;;;;;;2056813;28;20709;-64
2021/08/15 01:18:35;;;;;;;5.70;3.77;;;17.30;91.00;;;;;;2056936;28;20650;-64
2021/08/15 01:19:36;;;;;;;5.07;4.30;;;17.30;90.90;;;;;;2057469;28;20431;-64
2021/08/15 01:20:36;;;;;;;4.57;4.17;;;17.30;90.90;;;;;;2057447;28;20459;-66
2021/08/15 01:21:43;;;;;;;6.23;4.10;;;17.30;90.90;;;;;;2057592;28;20199;-64
2021/08/15 01:22:45;;;;;;;4.63;3.47;;;17.30;90.90;;;;;;2057247;28;20570;-64
2021/08/15 01:23:46;;;;;;;9.53;4.27;;;17.30;91.10;;;;;;2057392;28;20437;-64
2021/08/15 01:24:49;;;;;;;6.03;4.27;;;17.20;91.40;;;;;;2057426;28;20430;-64
2021/08/15 01:25:50;;;;;;;7.00;4.83;;;17.20;91.50;;;;;;2057525;28;20198;-64
2021/08/15 01:26:51;;;;;;;5.50;4.37;;;17.20;91.40;;;;;;2057241;28;20820;-64
2021/08/15 01:27:52;;;;;;;6.33;4.23;;;17.20;91.50;;;;;;2057307;28;20317;-64
2021/08/15 01:28:53;;;;;;;4.97;4.17;;;17.20;91.50;;;;;;2057342;28;20917;-64
2021/08/15 01:29:54;;;;;;;6.33;3.47;;;17.10;91.50;;;;;;2057274;28;20418;-64
2021/08/15 01:30:55;;;;;;;4.40;3.80;;;17.10;91.60;;;;;;2056866;28;20210;-64
2021/08/15 01:31:56;;;;;;;6.20;3.93;;;17.10;91.70;;;;;;2056849;28;20175;-64
2021/08/15 01:32:57;;;;;;;6.20;3.93;;;17.10;91.60;;;;;;2057261;28;20946;-64
2021/08/15 01:33:58;;;;;;;5.40;4.53;;;17.20;91.70;;;;;;2057333;28;20226;-64
2021/08/15 01:35:02;;;;;;;3.63;3.30;;;17.20;91.60;;;;;;2057292;28;20186;-64
2021/08/15 01:36:04;;;;;;;9.67;4.00;;;17.20;91.50;;;;;;2056897;28;20638;-64
2021/08/15 01:37:07;;;;;;;6.33;3.83;;;17.20;91.30;;;;;;2056583;28;20434;-64
2021/08/15 01:38:07;;;;;;;10.40;4.80;;;17.20;91.10;;;;;;2057413;28;20434;-64
2021/08/15 01:39:08;;;;;;;8.27;4.53;;;17.20;90.80;;;;;;2056644;28;20905;-64
2021/08/15 01:40:09;;;;;;;5.00;3.60;;;17.10;90.70;;;;;;2056889;28;20235;-65
2021/08/15 01:41:11;;;;;;;5.80;4.13;;;17.20;90.70;;;;;;2056805;28;20571;-64
2021/08/15 01:42:11;;;;;;;5.53;4.23;;;17.10;90.70;;;;;;2056637;28;20449;-64
2021/08/15 01:43:12;;;;;;;5.03;4.37;;;17.10;90.90;;;;;;2057090;28;20433;-65
2021/08/15 01:44:13;;;;;;;4.80;4.20;;;17.00;91.00;;;;;;2057267;28;20642;-65
2021/08/15 01:45:14;;;;;;;11.63;5.23;;;17.00;91.00;;;;;;2057119;28;20221;-65
2021/08/15 01:46:15;;;;;;;7.47;3.90;;;17.00;91.00;;;;;;2057187;28;20185;-64
2021/08/15 01:47:15;;;;;;;4.13;3.73;;;17.00;91.20;;;;;;2057033;28;20197;-65
2021/08/15 01:48:17;;;;;;;4.30;3.90;;;17.00;91.30;;;;;;2056925;28;20477;-65
2021/08/15 01:49:18;;;;;;;6.17;4.47;;;16.90;91.80;;;;;;2056409;28;20750;-64
2021/08/15 01:50:19;;;;;;;5.53;4.33;;;17.00;92.20;;;;;;2056642;28;20430;-64
2021/08/15 01:51:20;;;;;;;7.53;5.07;;;17.00;91.90;;;;;;2056478;28;20650;-64
2021/08/15 01:52:22;;;;;;;6.73;5.47;;;17.00;92.20;;;;;;2056548;28;20210;-64
2021/08/15 01:53:22;;;;;;;5.97;4.60;;;17.00;92.00;;;;;;2057151;28;20829;-64
2021/08/15 01:54:23;;;;;;;4.60;4.10;;;17.00;92.00;;;;;;2057165;28;20481;-64
2021/08/15 01:55:24;;;;;;;7.17;4.93;;;17.10;91.90;;;;;;2057121;28;20179;-64
2021/08/15 01:56:24;;;;;;;8.00;4.93;;;17.10;91.90;;;;;;2057165;28;20767;-62
2021/08/15 01:57:26;;;;;;;7.33;4.00;;;17.10;91.90;;;;;;2056823;28;20175;-64
2021/08/15 01:58:26;;;;;;;6.10;4.63;;;17.10;92.00;;;;;;2057112;28;20187;-63
2021/08/15 01:59:27;;;;;;;6.40;4.77;;;17.10;92.10;;;;;;2056328;28;20806;-66
2021/08/15 02:00:28;;;;;;;12.10;4.70;;;17.10;92.10;;;;;;2056470;28;20183;-64
2021/08/15 02:01:29;;;;;;;6.03;5.17;;;17.10;92.20;;;;;;2057102;28;20183;-63
2021/08/15 02:02:29;;;;;;;8.63;4.07;;;17.10;92.10;;;;;;2056974;28;20349;-64
2021/08/15 02:03:30;;;;;;;13.50;4.43;;;17.10;92.10;;;;;;2057050;28;20666;-64
2021/08/15 02:04:31;;;;;;;5.23;4.40;;;17.10;92.10;;;;;;2056414;28;20194;-64
2021/08/15 02:05:32;;;;;;;10.33;4.90;;;17.10;92.10;;;;;;2056494;28;20436;-64
2021/08/15 02:06:32;;;;;;;7.83;4.90;;;17.10;92.00;;;;;;2057055;28;20274;-64
2021/08/15 02:07:33;;;;;;;5.10;3.73;;;17.00;92.00;;;;;;2056919;28;20191;-64
2021/08/15 02:08:34;;;;;;;4.93;4.07;;;17.00;92.00;;;;;;2056980;28;20210;-64
2021/08/15 02:09:34;;;;;;;5.97;4.70;;;17.00;91.90;;;;;;2057079;28;20217;-64
2021/08/15 02:10:36;;;;;;;6.70;4.83;;;17.00;91.90;;;;;;2057099;28;20183;-64
2021/08/15 02:11:37;;;;;;;6.90;4.73;;;17.00;92.00;;;;;;2057121;28;20202;-64
2021/08/15 02:12:38;;;;;;;9.47;4.40;;;16.90;92.00;;;;;;2056970;28;20442;-64
2021/08/15 02:13:40;;;;;;;5.90;4.43;;;17.00;91.90;;;;;;2057194;28;20183;-64
2021/08/15 02:14:40;;;;;;;5.80;4.20;;;17.00;91.80;;;;;;2056658;28;20191;-64
2021/08/15 02:15:41;;;;;;;4.27;3.87;;;17.00;91.60;;;;;;2056900;28;20430;-64
2021/08/15 02:16:43;;;;;;;6.40;4.83;;;17.00;91.60;;;;;;2057105;28;20187;-64
2021/08/15 02:17:43;;;;;;;8.03;3.77;;;17.00;91.60;;;;;;2056918;28;20597;-64
2021/08/15 02:18:44;;;;;;;10.53;4.97;;;16.90;91.70;;;;;;2057000;28;20434;-64
2021/08/15 02:19:45;;;;;;;8.03;5.53;;;16.90;91.70;;;;;;2057027;28;20187;-64
2021/08/15 02:20:46;;;;;;;5.97;4.50;;;16.90;91.90;;;;;;2056962;28;20218;-64
2021/08/15 02:21:46;;;;;;;6.97;4.80;;;16.90;92.00;;;;;;2056961;28;20194;-64
2021/08/15 02:22:47;;;;;;;7.57;4.60;;;16.90;92.10;;;;;;2056236;28;20195;-64
2021/08/15 02:23:48;;;;;;;8.67;5.10;;;16.90;92.30;;;;;;2056362;28;20258;-64
2021/08/15 02:24:49;;;;;;;7.60;3.83;;;16.80;92.40;;;;;;2056928;28;20638;-63
2021/08/15 02:25:49;;;;;;;8.43;4.97;;;16.90;92.30;;;;;;2057094;28;20282;-65
2021/08/15 02:26:50;;;;;;;6.43;4.10;;;16.90;92.30;;;;;;2056801;28;20211;-64
2021/08/15 02:27:52;;;;;;;5.37;3.87;;;16.90;92.20;;;;;;2056826;28;20673;-64
2021/08/15 02:28:53;;;;;;;5.57;4.27;;;16.90;92.10;;;;;;2056288;28;20786;-64
2021/08/15 02:29:53;;;;;;;5.70;5.07;;;16.90;92.00;;;;;;2056225;28;20463;-64
2021/08/15 02:30:54;;;;;;;4.00;3.60;;;16.90;91.70;;;;;;2056900;28;20183;-64
2021/08/15 02:31:55;;;;;;;7.63;4.63;;;16.90;91.50;;;;;;2056911;28;20175;-64
2021/08/15 02:32:56;;;;;;;4.63;3.70;;;16.90;91.40;;;;;;2056940;28;20211;-63
2021/08/15 02:33:56;;;;;;;4.37;3.40;;;16.90;91.30;;;;;;2056309;28;20609;-64
2021/08/15 02:34:57;;;;;;;7.70;4.50;;;16.80;91.20;;;;;;2056231;28;20191;-64
2021/08/15 02:35:58;;;;;;;4.47;3.40;;;16.70;91.20;;;;;;2056892;28;20536;-64
2021/08/15 02:36:59;;;;;;;6.07;4.30;;;16.70;91.20;;;;;;2056633;28;20553;-64
2021/08/15 02:38:00;;;;;;;5.77;4.53;;;16.60;91.20;;;;;;2056945;28;20727;-64
2021/08/15 02:39:01;;;;;;;7.97;4.13;;;16.70;91.30;;;;;;2056882;28;20833;-63
2021/08/15 02:40:02;;;;;;;5.03;3.80;;;16.70;91.30;;;;;;2056849;28;20422;-64
2021/08/15 02:41:03;;;;;;;3.87;3.47;;;16.60;91.30;;;;;;2056190;28;20222;-64
2021/08/15 02:42:07;;;;;;;4.80;3.63;;;16.60;91.40;;;;;;2056096;28;20435;-64
2021/08/15 02:43:08;;;;;;;5.10;3.97;;;16.60;91.50;;;;;;2054746;28;20183;-64
2021/08/15 02:44:09;;;;;;;4.83;4.00;;;16.50;91.50;;;;;;2056721;28;20429;-64
2021/08/15 02:45:13;;;;;;;5.13;3.77;;;16.50;91.60;;;;;;2050869;28;20195;-63
2021/08/15 02:46:13;;;;;;;6.17;4.20;;;16.50;91.60;;;;;;2048909;28;20631;-64
2021/08/15 02:47:14;;;;;;;5.90;4.23;;;16.50;91.80;;;;;;2048566;28;20438;-64
2021/08/15 02:48:15;;;;;;;6.30;4.20;;;16.50;91.80;;;;;;2048783;28;20753;-64
2021/08/15 02:49:16;;;;;;;5.77;4.40;;;16.50;91.90;;;;;;2048729;28;20263;-64
2021/08/15 02:50:17;;;;;;;5.13;4.03;;;16.50;91.90;;;;;;2048808;29;20634;-65
2021/08/15 02:51:18;;;;;;;6.13;4.30;;;16.40;91.90;;;;;;2048034;29;20179;-64
2021/08/15 02:52:19;;;;;;;4.67;4.13;;;16.50;91.90;;;;;;2040396;29;20888;-64
2021/08/15 02:53:19;;;;;;;6.47;4.57;;;16.40;91.90;;;;;;2048199;29;20212;-64
2021/08/15 02:54:20;;;;;;;6.53;4.43;;;16.50;92.20;;;;;;2048912;28;20242;-64
2021/08/15 02:55:21;;;;;;;5.00;4.47;;;16.40;92.20;;;;;;2048881;28;20183;-63
2021/08/15 02:56:21;;;;;;;8.97;5.40;;;16.40;92.30;;;;;;2048704;28;20271;-64
2021/08/15 02:57:23;;;;;;;4.63;4.00;;;16.40;92.40;;;;;;2047907;28;20298;-64
2021/08/15 02:58:23;;;;;;;5.97;4.30;;;16.40;92.40;;;;;;2048238;28;20199;-64
2021/08/15 02:59:24;;;;;;;4.83;3.73;;;16.40;92.40;;;;;;2048642;28;20805;-64
2021/08/15 03:00:25;;;;;;;7.00;4.60;;;16.30;92.30;;;;;;2048814;28;20180;-64
2021/08/15 03:01:26;;;;;;;4.87;3.83;;;16.30;92.30;;;;;;2048732;28;20193;-63
2021/08/15 03:02:27;;;;;;;5.17;3.73;;;16.30;92.20;;;;;;2048689;28;20451;-64
2021/08/15 03:03:27;;;;;;;5.00;4.40;;;16.30;92.20;;;;;;2048790;28;20188;-64
2021/08/15 03:04:28;;;;;;;6.20;3.47;;;16.30;92.10;;;;;;2048310;29;20218;-64
2021/08/15 03:05:29;;;;;;;4.27;3.70;;;16.30;92.00;;;;;;2048228;29;20230;-64
2021/08/15 03:06:29;;;;;;;4.07;3.57;;;16.30;91.90;;;;;;2048734;28;20190;-65
2021/08/15 03:07:30;;;;;;;4.17;3.80;;;16.30;91.90;;;;;;2048572;29;20191;-63
2021/08/15 03:08:31;;;;;;;5.10;4.23;;;16.30;91.90;;;;;;2048833;28;20211;-63
2021/08/15 03:09:32;;;;;;;5.63;3.03;;;16.20;91.80;;;;;;2048687;28;20183;-64
2021/08/15 03:10:32;;;;;;;7.10;4.00;;;16.20;91.90;;;;;;2048219;29;20555;-64
2021/08/15 03:11:33;;;;;;;7.27;3.80;;;16.20;92.00;;;;;;2048176;29;20179;-63
2021/08/15 03:12:34;;;;;;;5.00;4.00;;;16.20;92.10;;;;;;2048775;28;20737;-64
2021/08/15 03:13:35;;;;;;;5.28;4.18;;;16.10;92.10;;;;;;2048843;28;20180;-63
2021/08/15 03:14:38;;;;;;;7.20;4.07;;;16.10;92.10;;;;;;2048885;28;20562;-64
2021/08/15 03:15:40;;;;;;;6.37;4.07;;;16.10;92.00;;;;;;2048167;29;20176;-64
2021/08/15 03:16:40;;;;;;;4.23;3.83;;;16.10;92.10;;;;;;2048195;29;20431;-64
2021/08/15 03:17:41;;;;;;;4.73;4.13;;;16.10;92.10;;;;;;2048541;28;20507;-64
2021/08/15 03:18:43;;;;;;;3.60;3.00;;;16.10;92.00;;;;;;2048172;28;20183;-64
2021/08/15 03:19:44;;;;;;;4.63;3.17;;;16.10;92.00;;;;;;2048236;29;20659;-64
2021/08/15 03:20:45;;;;;;;4.03;3.07;;;16.10;92.00;;;;;;2048806;28;20487;-64
2021/08/15 03:21:46;;;;;;;4.43;3.63;;;16.10;91.90;;;;;;2048827;28;20179;-63
2021/08/15 03:22:47;;;;;;;4.80;3.80;;;16.10;92.50;;;;;;2048367;28;20443;-64
2021/08/15 03:23:47;;;;;;;5.00;4.03;;;16.00;92.10;;;;;;2048350;29;20428;-64
2021/08/15 03:24:48;;;;;;;4.53;4.03;;;16.10;92.10;;;;;;2048801;28;20534;-64
2021/08/15 03:25:48;;;;;;;4.67;3.53;;;16.00;92.00;;;;;;2048766;28;20184;-64
2021/08/15 03:26:49;;;;;;;6.17;4.00;;;16.10;92.00;;;;;;2048570;28;20211;-64
2021/08/15 03:27:50;;;;;;;4.60;3.80;;;16.00;92.10;;;;;;2050358;28;20207;-64
2021/08/15 03:28:51;;;;;;;5.67;4.03;;;16.00;92.20;;;;;;2050180;28;20218;-61
2021/08/15 03:29:51;;;;;;;6.13;3.83;;;16.00;92.20;;;;;;2050302;28;20176;-64
2021/08/15 03:30:52;;;;;;;4.40;3.10;;;16.00;92.30;;;;;;2050334;28;20171;-64
2021/08/15 03:31:53;;;;;;;6.97;4.03;;;16.00;92.20;;;;;;2050354;29;20593;-64
2021/08/15 03:32:54;;;;;;;4.27;3.83;;;16.00;92.10;;;;;;2050167;28;20246;-64
2021/08/15 03:33:54;;;;;;;3.97;3.57;;;16.00;92.10;;;;;;2050319;28;20423;-63
2021/08/15 03:34:55;;;;;;;6.47;4.53;;;16.00;92.00;;;;;;2049612;29;20183;-64
2021/08/15 03:35:56;;;;;;;7.30;4.03;;;16.00;92.20;;;;;;2049743;29;20262;-64
2021/08/15 03:36:58;;;;;;;8.13;4.90;;;16.00;92.20;;;;;;2050108;28;20183;-65
2021/08/15 03:37:59;;;;;;;6.47;4.38;;;16.00;92.20;;;;;;2050243;28;20179;-64
2021/08/15 03:39:00;;;;;;;6.13;3.77;;;16.00;92.10;;;;;;2050274;28;20211;-63
2021/08/15 03:40:00;;;;;;;4.67;3.77;;;16.00;92.10;;;;;;2050208;28;20262;-65
2021/08/15 03:41:01;;;;;;;4.23;3.80;;;16.00;92.20;;;;;;2050331;28;20426;-64
2021/08/15 03:42:02;;;;;;;7.13;5.40;;;16.00;92.30;;;;;;2050152;28;20187;-64
2021/08/15 03:43:03;;;;;;;5.77;4.27;;;16.00;92.60;;;;;;2049540;29;20673;-64
2021/08/15 03:44:04;;;;;;;6.63;4.63;;;16.00;92.90;;;;;;2049587;29;20420;-62
2021/08/15 03:45:06;;;;;;;7.85;5.13;;;16.00;93.00;;;;;;2050142;28;20854;-64
2021/08/15 03:46:07;;;;;;;4.40;4.00;;;16.00;93.10;;;;;;2050160;28;20183;-64
2021/08/15 03:47:08;;;;;;;7.00;4.70;;;16.10;93.00;;;;;;2050003;28;20188;-64
2021/08/15 03:48:08;;;;;;;5.47;3.63;;;16.10;93.00;;;;;;2050298;28;20164;-64
2021/08/15 03:49:09;;;;;;;10.20;5.73;;;16.10;92.90;;;;;;2050107;28;20239;-64
2021/08/15 03:50:10;;;;;;;4.97;4.30;;;16.10;92.90;;;;;;2050150;28;20180;-64
2021/08/15 03:51:11;;;;;;;5.30;3.93;;;16.10;92.70;;;;;;2050100;28;20188;-64
2021/08/15 03:52:12;;;;;;;7.27;4.80;;;16.10;92.50;;;;;;2050084;28;20420;-63
2021/08/15 03:53:13;;;;;;;5.37;3.90;;;16.10;92.40;;;;;;2050094;28;20187;-64
2021/08/15 03:54:19;;;;;;;6.33;4.10;;;16.10;92.30;;;;;;2050269;28;20186;-64
2021/08/15 03:55:20;;;;;;;4.50;4.05;;;16.00;92.30;;;;;;2050110;28;20160;-63
2021/08/15 03:56:20;;;;;;;5.87;4.47;;;16.00;92.30;;;;;;2049957;29;20274;-64
2021/08/15 03:57:21;;;;;;;5.50;4.67;;;16.00;92.20;;;;;;2049929;28;20270;-64
2021/08/15 03:58:22;;;;;;;7.00;4.30;;;16.00;92.20;;;;;;2050098;28;20187;-63
2021/08/15 03:59:22;;;;;;;5.50;4.10;;;16.00;92.20;;;;;;2049904;28;20916;-64
2021/08/15 04:00:23;;;;;;;8.73;3.87;;;16.00;92.20;;;;;;2050013;28;20234;-63
2021/08/15 04:01:24;;;;;;;5.00;3.93;;;16.00;92.20;;;;;;2050025;28;20183;-63
2021/08/15 04:02:25;;;;;;;4.20;3.80;;;16.00;92.10;;;;;;2049933;28;20633;-64
2021/08/15 04:03:25;;;;;;;4.50;3.60;;;16.00;92.20;;;;;;2049954;28;20195;-64
2021/08/15 04:04:26;;;;;;;6.80;5.03;;;16.00;92.20;;;;;;2050003;28;20266;-64
2021/08/15 04:05:27;;;;;;;4.70;4.07;;;16.00;92.20;;;;;;2049902;28;20180;-63
2021/08/15 04:06:28;;;;;;;11.53;4.23;;;16.00;92.20;;;;;;2049918;28;20179;-65
2021/08/15 04:07:28;;;;;;;7.77;4.27;;;16.00;92.20;;;;;;2049802;28;20180;-64
2021/08/15 04:08:30;;;;;;;8.33;3.70;;;16.00;92.10;;;;;;2049777;28;20569;-64
2021/08/15 04:09:30;;;;;;;5.17;4.37;;;16.00;92.10;;;;;;2049888;28;20176;-64
2021/08/15 04:10:32;;;;;;;5.13;3.90;;;15.90;92.10;;;;;;2049950;28;20424;-64
2021/08/15 04:11:32;;;;;;;4.05;3.30;;;16.00;92.20;;;;;;2050055;28;20219;-64
2021/08/15 04:12:33;;;;;;;6.67;4.57;;;16.00;92.10;;;;;;2049974;28;20199;-64
2021/08/15 04:13:34;;;;;;;5.97;4.13;;;16.00;92.20;;;;;;2049978;29;20230;-64
2021/08/15 04:14:34;;;;;;;5.57;4.63;;;16.00;92.20;;;;;;2049860;28;20176;-64
2021/08/15 04:15:35;;;;;;;9.37;5.67;;;16.00;92.60;;;;;;2049916;28;20180;-64
2021/08/15 04:16:36;;;;;;;5.00;4.27;;;16.10;93.00;;;;;;2049778;28;20184;-64
2021/08/15 04:17:36;;;;;;;6.03;4.77;;;16.10;93.10;;;;;;2049896;28;20203;-64
2021/08/15 04:18:37;;;;;;;8.53;5.17;;;16.10;93.00;;;;;;2049917;28;20561;-64
2021/08/15 04:19:38;;;;;;;10.63;5.23;;;16.10;92.90;;;;;;2049712;28;20184;-63
2021/08/15 04:20:39;;;;;;;7.67;5.13;;;16.20;92.80;;;;;;2049941;28;20186;-64
2021/08/15 04:21:39;;;;;;;7.20;5.00;;;16.20;92.90;;;;;;2049961;28;20234;-64
2021/08/15 04:22:40;;;;;;;6.97;5.43;;;16.20;92.90;;;;;;2049796;28;20550;-64
2021/08/15 04:23:41;;;;;;;6.20;4.70;;;16.20;92.80;;;;;;2049958;28;20242;-64
2021/08/15 04:24:41;;;;;;;6.70;4.37;;;16.20;92.80;;;;;;2049957;28;20279;-64
2021/08/15 04:25:42;;;;;;;7.13;3.90;;;16.20;92.70;;;;;;2049988;28;20195;-64
2021/08/15 04:26:44;;;;;;;4.87;4.27;;;16.20;92.60;;;;;;2049849;28;20179;-65
2021/08/15 04:27:45;;;;;;;3.50;3.20;;;16.30;92.50;;;;;;2049788;28;20194;-64
2021/08/15 04:28:46;;;;;;;5.43;4.83;;;16.30;92.50;;;;;;2049561;28;20467;-63
2021/08/15 04:29:46;;;;;;;4.90;3.77;;;16.20;92.50;;;;;;2049705;29;20239;-63
2021/08/15 04:30:47;;;;;;;7.27;3.73;;;16.30;92.40;;;;;;2049686;28;20180;-64
2021/08/15 04:31:48;;;;;;;4.33;3.67;;;16.20;92.70;;;;;;2049793;28;20175;-64
2021/08/15 04:32:48;;;;;;;7.03;4.90;;;16.20;92.20;;;;;;2049649;28;20211;-63
2021/08/15 04:33:49;;;;;;;5.80;4.07;;;16.20;92.10;;;;;;2049800;28;20246;-64
2021/08/15 04:34:50;;;;;;;5.87;4.40;;;16.20;92.10;;;;;;2049583;28;20364;-62
2021/08/15 04:35:52;;;;;;;5.47;4.00;;;16.20;92.00;;;;;;2049772;28;20184;-64
2021/08/15 04:36:53;;;;;;;5.17;3.87;;;16.20;92.00;;;;;;2049513;28;20180;-64
2021/08/15 04:37:54;;;;;;;7.03;4.17;;;16.10;91.90;;;;;;2049376;28;20424;-64
2021/08/15 04:38:54;;;;;;;5.73;5.10;;;16.20;91.90;;;;;;2050222;28;20221;-63
2021/08/15 04:39:55;;;;;;;5.27;4.13;;;16.10;91.80;;;;;;2053461;28;20246;-64
2021/08/15 04:40:56;;;;;;;5.20;3.87;;;16.20;91.80;;;;;;2057779;28;20270;-64
2021/08/15 04:41:57;;;;;;;8.60;4.77;;;16.20;91.70;;;;;;2057742;28;20237;-64
2021/08/15 04:42:58;;;;;;;7.57;3.55;;;16.20;91.70;;;;;;2057070;28;20204;-64
2021/08/15 04:43:58;;;;;;;4.33;3.33;;;16.20;91.70;;;;;;2057254;28;20178;-64
2021/08/15 04:44:59;;;;;;;5.63;3.53;;;16.20;91.70;;;;;;2057171;28;20186;-64
2021/08/15 04:46:01;;;;;;;7.47;4.23;;;16.20;91.70;;;;;;2057093;28;20180;-64
2021/08/15 04:47:01;;;;;;;3.80;3.33;;;16.20;91.70;;;;;;2057576;28;20275;-64
2021/08/15 04:48:03;;;;;;;4.30;3.83;;;16.20;91.70;;;;;;2057697;28;20560;-63
2021/08/15 04:49:03;;;;;;;5.20;3.85;;;16.20;91.80;;;;;;2057056;28;20180;-64
2021/08/15 04:50:04;;;;;;;8.83;3.80;;;16.20;91.90;;;;;;2056988;28;20175;-64
2021/08/15 04:51:05;;;;;;;5.72;3.55;;;16.20;91.90;;;;;;2057721;28;20190;-64
2021/08/15 04:52:06;;;;;;;5.77;4.70;;;16.20;91.90;;;;;;2057556;28;20706;-64
2021/08/15 04:53:07;;;;;;;8.47;3.53;;;16.20;91.90;;;;;;2057786;28;20179;-64
2021/08/15 04:54:07;;;;;;;6.23;4.03;;;16.20;91.90;;;;;;2047314;28;20276;-64
2021/08/15 04:55:09;;;;;;;4.13;2.70;;;16.20;91.80;;;;;;2045289;29;20179;-64
2021/08/15 04:56:09;;;;;;;6.47;4.00;;;16.20;91.70;;;;;;2049533;28;20643;-64
2021/08/15 04:57:10;;;;;;;5.63;4.33;;;16.30;91.50;;;;;;2049192;28;20506;-64
2021/08/15 04:58:11;;;;;;;5.27;4.03;;;16.30;91.40;;;;;;2049638;28;20694;-64
2021/08/15 04:59:11;;;;;;;3.53;2.80;;;16.30;91.30;;;;;;2049434;28;20211;-64
2021/08/15 05:00:13;;;;;;;8.10;4.10;;;16.30;91.40;;;;;;2049466;29;20221;-63
2021/08/15 05:01:13;;;;;;;5.37;4.10;;;16.30;91.40;;;;;;2049528;28;20225;-64
2021/08/15 05:02:14;;;;;;;4.67;3.73;;;16.30;91.40;;;;;;2049345;28;20434;-63
2021/08/15 05:03:16;;;;;;;5.67;4.03;;;16.30;91.50;;;;;;2049427;29;20672;-63
2021/08/15 05:04:17;;;;;;;10.27;4.10;;;16.30;91.60;;;;;;2049318;28;20194;-64
2021/08/15 05:05:17;;;;;;;5.83;4.33;;;16.40;91.70;;;;;;2049486;28;20431;-64
2021/08/15 05:06:19;;;;;;;5.00;4.50;;;16.40;91.90;;;;;;2049459;29;20183;-63
2021/08/15 05:07:19;;;;;;;5.63;4.50;;;16.30;91.90;;;;;;2049008;28;20267;-64
2021/08/15 05:08:21;;;;;;;4.17;3.77;;;16.30;91.90;;;;;;2049253;28;20522;-63
2021/08/15 05:09:22;;;;;;;4.93;4.13;;;16.30;91.80;;;;;;2049125;28;20188;-64
2021/08/15 05:10:23;;;;;;;6.87;4.50;;;16.30;91.70;;;;;;2048666;29;20515;-63
2021/08/15 05:11:23;;;;;;;4.23;3.83;;;16.30;91.70;;;;;;2048689;29;20915;-64
2021/08/15 05:12:24;;;;;;;7.10;3.97;;;16.30;91.70;;;;;;2049218;28;20448;-63
2021/08/15 05:13:28;;;;;;;3.50;3.20;;;16.30;91.60;;;;;;2049308;28;20729;-63
2021/08/15 05:14:29;;;;;;;3.80;3.23;;;16.30;91.60;;;;;;2048629;29;20198;-63
2021/08/15 05:15:30;;;;;;;4.40;3.73;;;16.30;91.70;;;;;;2048667;29;20867;-63
2021/08/15 05:16:31;;;;;;;6.20;3.60;;;16.30;91.60;;;;;;2049273;28;20207;-64
2021/08/15 05:17:31;;;;;;;4.30;3.53;;;16.40;91.50;;;;;;2048906;28;20211;-64